SPQU/AQP METAR and TAF weather

Enter ICAO airport designator
Station Type Date Time Source
SPQU METAR 2018/12/11 23:00 UTC NOAA

SPQU 112300Z 27008KT CAVOK 18/01 Q1026 NOSIG RMK PP000


Station Type Date Time Source
SPQU Decoded METAR 2018/12/11 23:00 UTC NOAA

Arequipa, Peru (SPQU) 16-19S 071-33W 2539M
Dec 11, 2018 - 06:00 PM EST / 2018.12.11 2300 UTC
Wind: from the W (270 degrees) at 9 MPH (8 KT):0
Visibility: greater than 7 mile(s):0
Temperature: 64 F (18 C)
Dew Point: 33 F (1 C)
Relative Humidity: 31%
Pressure (altimeter): 30.30 in. Hg (1026 hPa)
ob: SPQU 112300Z 27008KT CAVOK 18/01 Q1026 NOSIG RMK PP000
cycle: 23

Station Type Date Time Source
SPQU TAF 2018/12/11 18:37 UTC NOAA

TAF SPQU 111650Z 1118/1218 26010KT 9999 FEW120 TX23/1119Z TN10/1211Z
FM120000 02005KT CAVOK
FM121430 24007KT CAVOK
FM121800 26011KT CAVOK


Example: see airport list